createdAt,value
2022-11-18T00:01:30.767Z,10.48
2022-11-18T00:03:59.408Z,10.27
2022-11-18T00:06:28.930Z,7.57
2022-11-18T00:08:58.823Z,7.80
2022-11-18T00:11:48.536Z,8.88
2022-11-18T00:14:21.524Z,8.30
2022-11-18T00:16:55.225Z,9.18
2022-11-18T00:19:29.836Z,8.30
2022-11-18T00:21:58.993Z,7.70
2022-11-18T00:24:28.589Z,8.85
2022-11-18T00:26:58.042Z,8.45
2022-11-18T00:29:28.373Z,5.07
2022-11-18T00:31:56.868Z,8.65
2022-11-18T00:34:25.576Z,7.75
2022-11-18T00:36:56.411Z,8.65
2022-11-18T00:39:24.583Z,4.88
2022-11-18T00:42:11.256Z,9.73
2022-11-18T00:44:39.811Z,5.95
2022-11-18T00:47:11.000Z,8.68
2022-11-18T00:49:39.085Z,6.53
2022-11-18T00:52:06.872Z,6.45
2022-11-18T00:54:36.099Z,10.70
2022-11-18T00:57:05.438Z,8.40
2022-11-18T00:59:33.800Z,5.95
2022-11-18T01:02:06.984Z,6.80
2022-11-18T01:04:35.166Z,6.03
2022-11-18T01:07:02.993Z,7.43
2022-11-18T01:09:33.876Z,6.28
2022-11-18T01:12:20.783Z,6.93
2022-11-18T01:14:48.823Z,6.72
2022-11-18T01:17:18.031Z,4.53
2022-11-18T01:19:46.820Z,6.97
2022-11-18T01:22:14.984Z,9.55
2022-11-18T01:24:44.342Z,7.22
2022-11-18T01:27:12.134Z,8.50
2022-11-18T01:29:40.706Z,6.60
2022-11-18T01:32:24.065Z,6.32
2022-11-18T01:34:53.277Z,5.75
2022-11-18T01:37:21.554Z,8.00
2022-11-18T01:39:49.629Z,7.32
2022-11-18T01:42:20.247Z,11.50
2022-11-18T01:44:57.490Z,6.35
2022-11-18T01:47:28.815Z,8.68
2022-11-18T01:49:58.281Z,9.38
2022-11-18T01:52:27.028Z,6.90
2022-11-18T01:55:03.756Z,6.85
2022-11-18T01:57:32.549Z,4.88
2022-11-18T02:00:04.416Z,8.07
2022-11-18T02:02:35.644Z,5.88
2022-11-18T02:05:06.599Z,7.28
2022-11-18T02:07:40.728Z,5.25
2022-11-18T02:10:16.826Z,6.53
2022-11-18T02:12:44.766Z,8.55
2022-11-18T02:15:12.995Z,9.65
2022-11-18T02:18:06.857Z,9.20
2022-11-18T02:20:41.010Z,7.60
2022-11-18T02:23:17.524Z,7.63
2022-11-18T02:26:17.679Z,5.00
2022-11-18T02:29:09.127Z,9.05
2022-11-18T02:31:49.117Z,5.18
2022-11-18T02:34:37.045Z,5.55
2022-11-18T02:37:22.467Z,5.63
2022-11-18T02:40:00.357Z,6.20
2022-11-18T02:42:33.626Z,9.73
2022-11-18T02:45:06.577Z,7.57
2022-11-18T02:47:36.549Z,6.68
2022-11-18T02:50:10.511Z,6.18
2022-11-18T02:52:40.842Z,6.07
2022-11-18T02:55:12.602Z,7.53
2022-11-18T02:57:42.159Z,5.10
2022-11-18T03:00:14.041Z,8.13
2022-11-18T03:02:47.991Z,6.35
2022-11-18T03:05:53.465Z,6.70
2022-11-18T03:08:25.970Z,5.57
2022-11-18T03:11:04.702Z,6.28
2022-11-18T03:13:47.963Z,5.45
2022-11-18T03:16:28.269Z,8.30
2022-11-18T03:19:22.199Z,5.38
2022-11-18T03:22:06.230Z,6.65
2022-11-18T03:24:41.122Z,6.22
2022-11-18T03:27:38.819Z,8.48
2022-11-18T03:30:10.560Z,7.22
2022-11-18T03:32:43.741Z,7.32
2022-11-18T03:35:18.006Z,8.10
2022-11-18T03:37:50.725Z,10.32
2022-11-18T03:40:24.931Z,7.47
2022-11-18T03:43:00.541Z,7.43
2022-11-18T03:45:44.682Z,7.88
2022-11-18T03:48:18.037Z,5.25
2022-11-18T03:50:54.770Z,7.47
2022-11-18T03:53:25.945Z,5.88
2022-11-18T03:56:04.417Z,5.82
2022-11-18T03:58:46.708Z,5.82
2022-11-18T04:01:41.023Z,4.25
2022-11-18T04:04:10.332Z,7.22
2022-11-18T04:07:03.013Z,3.88
2022-11-18T04:09:38.794Z,6.15
2022-11-18T04:12:11.832Z,4.38
2022-11-18T04:14:44.605Z,6.18
2022-11-18T04:17:15.152Z,5.57
2022-11-18T04:19:45.722Z,7.38
2022-11-18T04:22:13.870Z,5.95
2022-11-18T04:24:42.410Z,4.93
2022-11-18T04:27:13.636Z,5.22
2022-11-18T04:29:42.025Z,5.60
2022-11-18T04:32:10.528Z,5.35
2022-11-18T04:34:40.120Z,3.80
2022-11-18T04:37:08.347Z,6.25
2022-11-18T04:39:38.458Z,6.20
2022-11-18T04:42:06.666Z,6.15
2022-11-18T04:44:35.122Z,5.60
2022-11-18T04:47:06.538Z,4.10
2022-11-18T04:49:36.008Z,3.83
2022-11-18T04:52:04.530Z,8.82
2022-11-18T04:54:32.926Z,8.45
2022-11-18T04:57:01.906Z,5.50
2022-11-18T04:59:31.237Z,6.00
2022-11-18T05:02:01.207Z,4.22
2022-11-18T05:04:31.913Z,3.33
2022-11-18T05:07:02.109Z,7.60
2022-11-18T05:09:32.261Z,4.03
2022-11-18T05:12:20.507Z,6.35
2022-11-18T05:14:50.399Z,7.15
2022-11-18T05:17:19.891Z,5.95
2022-11-18T05:19:47.799Z,5.90
2022-11-18T05:22:16.079Z,5.97
2022-11-18T05:24:44.446Z,7.18
2022-11-18T05:27:14.371Z,3.97
2022-11-18T05:29:42.203Z,6.82
2022-11-18T05:32:10.909Z,5.70
2022-11-18T05:34:42.322Z,7.00
2022-11-18T05:37:11.996Z,5.93
2022-11-18T05:39:40.337Z,4.28
2022-11-18T05:42:29.048Z,4.97
2022-11-18T05:44:58.910Z,5.78
2022-11-18T05:47:50.405Z,8.50
2022-11-18T05:50:21.324Z,8.73
2022-11-18T05:52:50.198Z,4.72
2022-11-18T05:55:19.592Z,7.18
2022-11-18T05:57:50.190Z,5.43
2022-11-18T06:00:18.464Z,8.45
2022-11-18T06:02:49.853Z,4.85
2022-11-18T06:07:47.612Z,7.00
2022-11-18T06:10:28.634Z,6.82
2022-11-18T06:13:01.252Z,5.30
2022-11-18T06:15:38.608Z,5.43
2022-11-18T06:18:29.282Z,5.45
2022-11-18T06:21:03.546Z,5.90
2022-11-18T06:23:36.210Z,6.55
2022-11-18T06:26:04.396Z,5.53
2022-11-18T06:28:33.215Z,6.07
2022-11-18T06:31:01.470Z,6.07
2022-11-18T06:33:29.635Z,6.82
2022-11-18T06:35:57.889Z,5.25
2022-11-18T06:38:26.633Z,7.03
2022-11-18T06:40:58.306Z,4.30
2022-11-18T06:43:44.705Z,6.55
2022-11-18T06:46:36.605Z,5.70
2022-11-18T06:49:05.694Z,8.35
2022-11-18T06:51:33.959Z,6.00
2022-11-18T06:54:07.445Z,8.00
2022-11-18T06:56:38.806Z,4.25
2022-11-18T06:59:08.006Z,7.63
2022-11-18T07:01:38.983Z,8.95
2022-11-18T07:04:07.700Z,4.88
2022-11-18T07:06:37.046Z,8.90
2022-11-18T07:09:07.050Z,5.80
2022-11-18T07:11:40.427Z,6.35
2022-11-18T07:14:09.418Z,3.50
2022-11-18T07:16:38.028Z,3.92
2022-11-18T07:19:11.697Z,7.25
2022-11-18T07:21:40.520Z,5.72
2022-11-18T07:24:09.699Z,3.95
2022-11-18T07:26:37.759Z,4.78
2022-11-18T07:29:06.871Z,9.38
2022-11-18T07:31:37.538Z,6.53
2022-11-18T07:36:36.090Z,5.60
2022-11-18T07:39:06.723Z,4.65
2022-11-18T07:41:35.793Z,6.97
2022-11-18T07:44:05.033Z,6.45
2022-11-18T07:46:38.218Z,9.95
2022-11-18T07:49:10.976Z,6.63
2022-11-18T07:51:40.618Z,4.78
2022-11-18T07:54:14.897Z,4.25
2022-11-18T07:56:42.754Z,11.00
2022-11-18T07:59:11.559Z,6.32
2022-11-18T08:01:39.611Z,7.50
2022-11-18T08:04:10.760Z,6.78
2022-11-18T08:06:40.311Z,6.30
2022-11-18T08:09:11.432Z,4.88
2022-11-18T08:11:40.928Z,5.68
2022-11-18T08:14:09.270Z,6.00
2022-11-18T08:16:38.003Z,5.82
2022-11-18T08:19:06.777Z,8.43
2022-11-18T08:21:34.959Z,6.18
2022-11-18T08:24:03.112Z,6.85
2022-11-18T08:26:31.560Z,6.32
2022-11-18T08:29:00.229Z,6.80
2022-11-18T08:31:30.742Z,9.80
2022-11-18T08:34:04.731Z,5.75
2022-11-18T08:36:35.093Z,6.82
2022-11-18T08:39:06.515Z,5.38
2022-11-18T08:41:39.009Z,5.47
2022-11-18T08:44:08.390Z,8.85
2022-11-18T08:46:36.801Z,5.72
2022-11-18T08:49:05.808Z,6.20
2022-11-18T08:51:35.597Z,7.05
2022-11-18T08:54:03.817Z,7.68
2022-11-18T08:56:32.265Z,6.45
2022-11-18T09:01:31.264Z,6.78
2022-11-18T09:03:59.678Z,8.50
2022-11-18T09:06:28.045Z,10.30
2022-11-18T09:09:02.087Z,6.50
2022-11-18T09:11:34.660Z,6.10
2022-11-18T09:15:06.364Z,7.15
2022-11-18T09:16:51.953Z,5.68
2022-11-18T09:22:11.710Z,6.72
2022-11-18T09:24:41.005Z,7.40
2022-11-18T09:27:15.245Z,6.30
2022-11-18T09:29:45.961Z,7.68
2022-11-18T09:32:14.417Z,7.80
2022-11-18T09:34:43.235Z,10.00
2022-11-18T09:37:13.344Z,7.18
2022-11-18T09:39:41.947Z,5.25
2022-11-18T09:42:28.607Z,7.60
2022-11-18T09:45:28.431Z,7.88
2022-11-18T09:48:01.183Z,8.65
2022-11-18T09:50:49.087Z,7.50
2022-11-18T09:53:26.340Z,7.28
2022-11-18T09:55:55.857Z,15.05
2022-11-18T09:58:34.093Z,5.90
2022-11-18T10:01:03.939Z,7.68
2022-11-18T10:03:33.805Z,10.30
2022-11-18T10:06:27.361Z,11.77
2022-11-18T10:09:03.900Z,5.70
2022-11-18T10:11:51.663Z,7.97
2022-11-18T10:14:41.855Z,8.90
2022-11-18T10:17:32.190Z,6.45
2022-11-18T10:21:24.673Z,7.93
2022-11-18T10:24:20.990Z,7.53
2022-11-18T10:26:56.404Z,6.90
2022-11-18T10:29:26.280Z,5.72
2022-11-18T10:32:04.962Z,6.75
2022-11-18T10:34:36.413Z,7.45
2022-11-18T10:37:08.257Z,10.02
2022-11-18T10:40:22.822Z,6.47
2022-11-18T10:42:50.716Z,8.23
2022-11-18T10:45:32.655Z,6.88
2022-11-18T10:48:21.252Z,8.70
2022-11-18T10:50:55.411Z,6.20
2022-11-18T10:53:35.729Z,8.65
2022-11-18T10:56:13.752Z,9.18
2022-11-18T10:58:49.739Z,6.40
2022-11-18T11:01:24.392Z,8.77
2022-11-18T11:04:32.873Z,7.68
2022-11-18T11:07:32.380Z,5.70
2022-11-18T11:10:25.140Z,6.18
2022-11-18T11:13:13.769Z,9.15
2022-11-18T11:15:46.777Z,8.45
2022-11-18T11:18:43.554Z,9.18
2022-11-18T11:21:22.841Z,4.97
2022-11-18T11:23:51.026Z,7.22
2022-11-18T11:29:27.976Z,7.05
2022-11-18T11:32:19.197Z,6.53
2022-11-18T11:35:21.406Z,4.75
2022-11-18T11:38:04.352Z,6.10
2022-11-18T11:40:53.154Z,7.53
2022-11-18T11:43:43.616Z,6.05
2022-11-18T11:46:33.940Z,6.88
2022-11-18T11:49:43.732Z,7.07
2022-11-18T11:52:45.504Z,7.05
2022-11-18T11:55:17.799Z,7.88
2022-11-18T11:57:51.983Z,6.45
2022-11-18T12:00:24.639Z,5.90
2022-11-18T12:03:25.187Z,5.43
2022-11-18T12:05:54.143Z,6.00
2022-11-18T12:08:26.072Z,5.18
2022-11-18T12:11:00.296Z,7.80
2022-11-18T12:13:46.738Z,3.88
2022-11-18T12:16:45.681Z,6.55
2022-11-18T12:19:20.390Z,5.55
2022-11-18T12:22:04.078Z,5.70
2022-11-18T12:24:34.298Z,6.37
2022-11-18T12:27:14.085Z,7.30
2022-11-18T12:29:48.285Z,6.53
2022-11-18T12:32:46.851Z,5.72
2022-11-18T12:35:16.223Z,4.55
2022-11-18T12:37:51.637Z,8.32
2022-11-18T12:40:32.162Z,4.93
2022-11-18T12:43:19.743Z,7.03
2022-11-18T12:45:52.986Z,5.38
2022-11-18T12:48:27.841Z,6.07
2022-11-18T12:51:26.263Z,6.85
2022-11-18T12:53:58.176Z,8.52
2022-11-18T12:56:35.744Z,5.15
2022-11-18T12:59:04.053Z,4.15
2022-11-18T13:01:35.519Z,5.55
2022-11-18T13:04:16.877Z,4.15
2022-11-18T13:06:46.410Z,5.50
2022-11-18T13:09:21.268Z,4.93
2022-11-18T13:12:04.344Z,8.48
2022-11-18T13:15:01.604Z,5.03
2022-11-18T13:17:58.488Z,5.05
2022-11-18T13:20:38.324Z,5.05
2022-11-18T13:23:27.993Z,6.28
2022-11-18T13:26:05.426Z,8.23
2022-11-18T13:28:50.128Z,4.60
2022-11-18T13:31:43.944Z,3.92
2022-11-18T13:34:25.651Z,3.65
2022-11-18T13:36:59.199Z,3.47
2022-11-18T13:39:30.365Z,4.57
2022-11-18T13:42:24.895Z,4.78
2022-11-18T13:44:58.825Z,4.60
2022-11-18T13:47:37.499Z,5.07
2022-11-18T13:50:11.836Z,6.60
2022-11-18T13:52:48.401Z,5.40
2022-11-18T13:55:23.556Z,5.13
2022-11-18T13:58:28.010Z,7.85
2022-11-18T14:01:13.838Z,8.23
2022-11-18T14:03:53.953Z,7.00
2022-11-18T14:06:33.024Z,7.78
2022-11-18T14:09:07.092Z,5.22
2022-11-18T14:11:45.512Z,6.13
2022-11-18T14:14:29.643Z,4.07
2022-11-18T14:17:26.028Z,5.47
2022-11-18T14:20:01.368Z,6.68
2022-11-18T14:22:43.139Z,6.15
2022-11-18T14:25:22.358Z,4.57
2022-11-18T14:27:58.250Z,7.10
2022-11-18T14:30:33.600Z,4.50
2022-11-18T14:33:20.854Z,10.35
2022-11-18T14:36:15.686Z,4.45
2022-11-18T14:39:19.883Z,5.55
2022-11-18T14:41:49.756Z,5.07
2022-11-18T14:44:19.681Z,5.72
2022-11-18T14:46:53.539Z,5.07
2022-11-18T14:49:24.008Z,6.32
2022-11-18T14:51:54.903Z,8.45
2022-11-18T14:54:28.039Z,5.03
2022-11-18T14:57:05.083Z,7.13
2022-11-18T14:59:44.849Z,7.97
2022-11-18T15:02:15.329Z,3.45
2022-11-18T15:04:44.456Z,6.25
2022-11-18T15:07:21.817Z,4.15
2022-11-18T15:09:54.580Z,3.85
2022-11-18T15:12:22.422Z,5.25
2022-11-18T15:14:56.580Z,3.30
2022-11-18T15:17:24.869Z,5.35
2022-11-18T15:19:53.060Z,6.32
2022-11-18T15:22:20.988Z,5.88
2022-11-18T15:24:50.087Z,3.65
2022-11-18T15:27:18.441Z,6.47
2022-11-18T15:29:47.117Z,6.05
2022-11-18T15:32:15.411Z,5.63
2022-11-18T15:34:45.696Z,4.80
2022-11-18T15:37:14.357Z,8.15
2022-11-18T15:39:42.613Z,7.93
2022-11-18T15:42:16.892Z,6.30
2022-11-18T15:44:47.324Z,6.78
2022-11-18T15:47:17.465Z,6.95
2022-11-18T15:49:48.013Z,6.03
2022-11-18T15:54:45.229Z,7.03
2022-11-18T15:57:15.476Z,4.72
2022-11-18T15:59:44.570Z,5.35
2022-11-18T16:02:13.219Z,4.72
2022-11-18T16:04:41.369Z,7.88
2022-11-18T16:07:10.281Z,5.32
2022-11-18T16:09:57.347Z,5.70
2022-11-18T16:12:43.736Z,5.40
2022-11-18T16:15:30.294Z,5.70
2022-11-18T16:17:58.773Z,4.25
2022-11-18T16:20:28.000Z,4.13
2022-11-18T16:22:57.419Z,5.60
2022-11-18T16:25:28.268Z,4.95
2022-11-18T16:27:59.639Z,6.82
2022-11-18T16:30:51.606Z,5.10
2022-11-18T16:33:24.335Z,6.13
2022-11-18T16:35:52.937Z,4.00
2022-11-18T16:38:20.785Z,6.20
2022-11-18T16:40:58.501Z,5.53
2022-11-18T16:43:27.067Z,5.90
2022-11-18T16:45:55.689Z,5.18
2022-11-18T16:48:23.505Z,6.50
2022-11-18T16:51:13.551Z,6.07
2022-11-18T16:53:42.160Z,5.53
2022-11-18T16:56:10.443Z,6.30
2022-11-18T16:58:38.393Z,5.93
2022-11-18T17:01:22.246Z,6.90
2022-11-18T17:03:56.724Z,5.10
2022-11-18T17:06:25.376Z,4.97
2022-11-18T17:08:53.733Z,7.28
2022-11-18T17:11:22.516Z,5.15
2022-11-18T17:13:56.426Z,7.25
2022-11-18T17:16:27.485Z,7.88
2022-11-18T17:18:57.397Z,8.52
2022-11-18T17:21:28.700Z,5.97
2022-11-18T17:23:57.688Z,8.48
2022-11-18T17:26:28.126Z,6.97
2022-11-18T17:28:57.008Z,7.80
2022-11-18T17:31:25.834Z,8.82
2022-11-18T17:33:55.864Z,8.85
2022-11-18T17:36:26.284Z,9.70
2022-11-18T17:38:59.792Z,4.82
2022-11-18T17:41:48.217Z,6.13
2022-11-18T17:44:17.896Z,5.00
2022-11-18T17:46:47.359Z,6.45
2022-11-18T17:49:21.284Z,5.57
2022-11-18T17:51:51.480Z,8.02
2022-11-18T17:54:21.215Z,5.63
2022-11-18T17:56:52.509Z,5.55
2022-11-18T17:59:23.187Z,9.88
2022-11-18T18:01:57.545Z,5.88
2022-11-18T18:04:27.742Z,7.20
2022-11-18T18:06:56.721Z,7.63
2022-11-18T18:09:30.631Z,8.77
2022-11-18T18:12:22.827Z,8.13
2022-11-18T18:14:52.050Z,7.72
2022-11-18T18:17:21.149Z,6.75
2022-11-18T18:19:49.491Z,10.43
2022-11-18T18:22:17.625Z,8.20
2022-11-18T18:24:45.606Z,8.93
2022-11-18T18:27:15.230Z,11.13
2022-11-18T18:29:43.264Z,8.68
2022-11-18T18:32:12.178Z,9.88
2022-11-18T18:34:41.143Z,11.73
2022-11-18T18:37:10.450Z,10.85
2022-11-18T18:39:38.825Z,8.43
2022-11-18T18:42:08.329Z,10.05
2022-11-18T18:44:54.835Z,11.13
2022-11-18T18:47:23.553Z,10.15
2022-11-18T18:49:51.390Z,10.05
2022-11-18T18:52:20.240Z,9.07
2022-11-18T18:54:48.055Z,13.25
2022-11-18T18:57:16.614Z,13.57
2022-11-18T18:59:44.448Z,15.05
2022-11-18T19:02:13.650Z,12.95
2022-11-18T19:04:41.380Z,14.77
2022-11-18T19:07:09.495Z,10.63
2022-11-18T19:09:37.885Z,10.65
2022-11-18T19:12:25.413Z,11.05
2022-11-18T19:14:54.731Z,8.68
2022-11-18T19:17:23.548Z,12.15
2022-11-18T19:20:10.251Z,9.32
2022-11-18T19:22:38.937Z,11.52
2022-11-18T19:25:07.656Z,10.15
2022-11-18T19:27:38.963Z,13.73
2022-11-18T19:30:08.399Z,10.38
2022-11-18T19:32:37.668Z,15.27
2022-11-18T19:35:06.653Z,10.68
2022-11-18T19:37:35.867Z,13.80
2022-11-18T19:40:08.965Z,14.85
2022-11-18T19:42:39.684Z,9.48
2022-11-18T19:45:11.077Z,13.15
2022-11-18T19:47:39.286Z,10.77
2022-11-18T19:50:12.383Z,10.80
2022-11-18T19:52:41.161Z,12.35
2022-11-18T19:55:10.087Z,12.70
2022-11-18T19:57:38.591Z,14.70
2022-11-18T20:00:09.481Z,12.88
2022-11-18T20:02:40.434Z,13.50
2022-11-18T20:05:34.822Z,13.95
2022-11-18T20:08:03.583Z,9.23
2022-11-18T20:10:31.982Z,12.95
2022-11-18T20:13:00.107Z,14.65
2022-11-18T20:15:28.813Z,16.42
2022-11-18T20:17:57.289Z,13.95
2022-11-18T20:20:25.584Z,13.35
2022-11-18T20:22:54.361Z,11.57
2022-11-18T20:25:22.548Z,16.45
2022-11-18T20:27:51.804Z,11.90
2022-11-18T20:30:20.200Z,12.45
2022-11-18T20:32:49.008Z,11.32
2022-11-18T20:35:16.894Z,11.20
2022-11-18T20:37:45.986Z,10.40
2022-11-18T20:40:14.348Z,14.50
2022-11-18T20:43:01.802Z,11.93
2022-11-18T20:45:29.719Z,15.20
2022-11-18T20:47:59.047Z,13.93
2022-11-18T20:50:27.963Z,9.73
2022-11-18T20:52:56.264Z,11.77
2022-11-18T20:55:24.710Z,12.60
2022-11-18T20:57:53.198Z,9.25
2022-11-18T21:00:21.098Z,13.77
2022-11-18T21:02:50.154Z,10.38
2022-11-18T21:05:21.588Z,9.52
2022-11-18T21:07:50.699Z,10.63
2022-11-18T21:10:20.826Z,11.60
2022-11-18T21:13:10.306Z,12.15
2022-11-18T21:15:38.735Z,12.35
2022-11-18T21:18:06.914Z,13.95
2022-11-18T21:20:53.895Z,12.75
2022-11-18T21:23:23.132Z,12.32
2022-11-18T21:25:52.331Z,11.10
2022-11-18T21:28:20.962Z,9.13
2022-11-18T21:30:49.278Z,10.50
2022-11-18T21:33:17.608Z,12.32
2022-11-18T21:35:45.457Z,13.98
2022-11-18T21:38:13.548Z,15.02
2022-11-18T21:40:42.259Z,11.05
2022-11-18T21:43:10.298Z,10.13
2022-11-18T21:45:38.645Z,9.43
2022-11-18T21:48:06.865Z,9.45
2022-11-18T21:50:36.018Z,14.02
2022-11-18T21:53:07.904Z,12.10
2022-11-18T21:55:35.722Z,11.55
2022-11-18T21:58:04.367Z,11.80
2022-11-18T22:00:33.300Z,12.45
2022-11-18T22:03:02.747Z,15.68
2022-11-18T22:05:34.101Z,14.50
2022-11-18T22:08:02.950Z,8.98
2022-11-18T22:10:30.641Z,9.55
2022-11-18T22:12:58.627Z,11.05
2022-11-18T22:15:27.183Z,8.13
2022-11-18T22:17:55.269Z,12.68
2022-11-18T22:20:23.695Z,10.40
2022-11-18T22:22:53.211Z,9.35
2022-11-18T22:25:21.582Z,14.60
2022-11-18T22:27:50.081Z,11.13
2022-11-18T22:30:17.931Z,15.93
2022-11-18T22:32:46.415Z,13.18
2022-11-18T22:35:14.285Z,15.73
2022-11-18T22:37:42.812Z,14.77
2022-11-18T22:40:11.324Z,8.80
2022-11-18T22:42:48.088Z,17.50
2022-11-18T22:45:16.465Z,10.10
2022-11-18T22:47:45.998Z,12.35
2022-11-18T22:50:15.047Z,10.75
2022-11-18T22:52:43.274Z,13.93
2022-11-18T22:55:11.419Z,11.98
2022-11-18T22:57:39.687Z,11.48
2022-11-18T23:00:08.376Z,11.65
2022-11-18T23:02:36.389Z,10.98
2022-11-18T23:05:04.726Z,9.73
2022-11-18T23:07:32.939Z,12.02
2022-11-18T23:10:01.264Z,11.38
2022-11-18T23:12:47.866Z,11.88
2022-11-18T23:15:15.871Z,13.15
2022-11-18T23:17:43.871Z,10.93
2022-11-18T23:20:12.178Z,12.63
2022-11-18T23:22:40.429Z,12.80
2022-11-18T23:25:08.711Z,9.00
2022-11-18T23:27:36.792Z,12.65
2022-11-18T23:30:05.167Z,9.48
2022-11-18T23:32:34.068Z,13.85
2022-11-18T23:35:01.804Z,10.57
2022-11-18T23:37:30.260Z,9.88
2022-11-18T23:39:58.007Z,13.05
2022-11-18T23:42:25.992Z,11.07
2022-11-18T23:44:59.785Z,12.63
2022-11-18T23:47:30.409Z,15.45
2022-11-18T23:50:00.616Z,19.52
2022-11-18T23:52:29.105Z,10.85
2022-11-18T23:54:57.634Z,10.75
2022-11-18T23:57:26.285Z,14.52
2022-11-18T23:59:54.649Z,7.05
